sensor_id;sensor_type;location;lat;lon;timestamp;pressure;altitude;pressure_sealevel;temperature;humidity
40838;BME280;29632;49.168;9.848;2023-02-28T00:00:17;97491.94;;;4.72;39.64
40838;BME280;29632;49.168;9.848;2023-02-28T00:02:44;97489.44;;;4.71;39.99
40838;BME280;29632;49.168;9.848;2023-02-28T00:05:11;97496.44;;;4.69;39.92
40838;BME280;29632;49.168;9.848;2023-02-28T00:07:37;97481.06;;;4.67;39.78
40838;BME280;29632;49.168;9.848;2023-02-28T00:10:05;97487.13;;;4.66;39.88
40838;BME280;29632;49.168;9.848;2023-02-28T00:12:32;97490.66;;;4.65;40.16
40838;BME280;29632;49.168;9.848;2023-02-28T00:14:57;97484.75;;;4.63;39.81
40838;BME280;29632;49.168;9.848;2023-02-28T00:17:23;97486.38;;;4.64;39.90
40838;BME280;29632;49.168;9.848;2023-02-28T00:19:49;97484.75;;;4.63;39.95
40838;BME280;29632;49.168;9.848;2023-02-28T00:22:16;97492.56;;;4.62;40.02
40838;BME280;29632;49.168;9.848;2023-02-28T00:24:42;97483.16;;;4.61;39.80
40838;BME280;29632;49.168;9.848;2023-02-28T00:27:08;97486.03;;;4.56;40.12
40838;BME280;29632;49.168;9.848;2023-02-28T00:29:33;97489.50;;;4.55;39.82
40838;BME280;29632;49.168;9.848;2023-02-28T00:31:59;97486.94;;;4.55;40.29
40838;BME280;29632;49.168;9.848;2023-02-28T00:34:25;97490.41;;;4.54;39.81
40838;BME280;29632;49.168;9.848;2023-02-28T00:36:50;97488.03;;;4.51;40.29
40838;BME280;29632;49.168;9.848;2023-02-28T00:39:16;97489.84;;;4.49;39.92
40838;BME280;29632;49.168;9.848;2023-02-28T00:41:42;97485.53;;;4.49;40.30
40838;BME280;29632;49.168;9.848;2023-02-28T00:44:07;97491.59;;;4.48;39.94
40838;BME280;29632;49.168;9.848;2023-02-28T00:46:33;97483.97;;;4.47;40.15
40838;BME280;29632;49.168;9.848;2023-02-28T00:48:59;97489.13;;;4.47;40.26
40838;BME280;29632;49.168;9.848;2023-02-28T00:51:24;97478.97;;;4.44;40.06
40838;BME280;29632;49.168;9.848;2023-02-28T00:53:50;97479.16;;;4.41;39.83
40838;BME280;29632;49.168;9.848;2023-02-28T00:56:16;97476.75;;;4.38;39.97
40838;BME280;29632;49.168;9.848;2023-02-28T00:58:41;97480.25;;;4.37;39.81
40838;BME280;29632;49.168;9.848;2023-02-28T01:01:07;97480.25;;;4.37;40.00
40838;BME280;29632;49.168;9.848;2023-02-28T01:03:33;97478.50;;;4.37;40.08
40838;BME280;29632;49.168;9.848;2023-02-28T01:05:58;97472.50;;;4.37;40.27
40838;BME280;29632;49.168;9.848;2023-02-28T01:08:24;97476.03;;;4.35;40.20
40838;BME280;29632;49.168;9.848;2023-02-28T01:10:51;97471.78;;;4.34;39.89
40838;BME280;29632;49.168;9.848;2023-02-28T01:13:17;97471.13;;;4.31;40.35
40838;BME280;29632;49.168;9.848;2023-02-28T01:15:50;97472.22;;;4.27;40.13
40838;BME280;29632;49.168;9.848;2023-02-28T01:18:19;97474.81;;;4.27;40.23
40838;BME280;29632;49.168;9.848;2023-02-28T01:20:44;97473.03;;;4.27;40.09
40838;BME280;29632;49.168;9.848;2023-02-28T01:23:11;97464.56;;;4.25;40.43
40838;BME280;29632;49.168;9.848;2023-02-28T01:25:37;97467.16;;;4.25;40.02
40838;BME280;29632;49.168;9.848;2023-02-28T01:28:03;97464.66;;;4.24;40.48
40838;BME280;29632;49.168;9.848;2023-02-28T01:30:28;97468.25;;;4.21;40.36
40838;BME280;29632;49.168;9.848;2023-02-28T01:32:54;97463.19;;;4.20;40.05
40838;BME280;29632;49.168;9.848;2023-02-28T01:35:20;97460.78;;;4.16;40.01
40838;BME280;29632;49.168;9.848;2023-02-28T01:37:45;97460.13;;;4.13;40.43
40838;BME280;29632;49.168;9.848;2023-02-28T01:40:12;97459.47;;;4.09;40.43
40838;BME280;29632;49.168;9.848;2023-02-28T01:42:38;97461.09;;;4.10;40.12
40838;BME280;29632;49.168;9.848;2023-02-28T01:47:55;97458.88;;;4.04;40.43
40838;BME280;29632;49.168;9.848;2023-02-28T01:50:27;97464.94;;;4.03;39.96
40838;BME280;29632;49.168;9.848;2023-02-28T01:52:55;97466.78;;;4.01;40.01
40838;BME280;29632;49.168;9.848;2023-02-28T01:55:21;97461.63;;;4.01;40.10
40838;BME280;29632;49.168;9.848;2023-02-28T01:57:50;97451.31;;;4.01;40.31
40838;BME280;29632;49.168;9.848;2023-02-28T02:00:20;97456.56;;;4.00;40.33
40838;BME280;29632;49.168;9.848;2023-02-28T02:02:49;97454.16;;;3.96;40.19
40838;BME280;29632;49.168;9.848;2023-02-28T02:05:20;97456.72;;;3.96;40.43
40838;BME280;29632;49.168;9.848;2023-02-28T02:07:47;97450.00;;;3.94;40.44
40838;BME280;29632;49.168;9.848;2023-02-28T02:10:16;97450.84;;;3.94;40.07
40838;BME280;29632;49.168;9.848;2023-02-28T02:15:10;97446.59;;;3.93;40.64
40838;BME280;29632;49.168;9.848;2023-02-28T02:17:41;97436.31;;;3.93;40.45
40838;BME280;29632;49.168;9.848;2023-02-28T02:20:25;97433.63;;;3.95;40.05
40838;BME280;29632;49.168;9.848;2023-02-28T02:29:01;97436.06;;;3.82;40.35
40838;BME280;29632;49.168;9.848;2023-02-28T02:36:51;97430.25;;;3.78;40.49
40838;BME280;29632;49.168;9.848;2023-02-28T02:39:39;97431.19;;;3.77;40.64
40838;BME280;29632;49.168;9.848;2023-02-28T02:42:12;97433.84;;;3.76;40.46
40838;BME280;29632;49.168;9.848;2023-02-28T02:44:42;97434.66;;;3.76;40.64
40838;BME280;29632;49.168;9.848;2023-02-28T02:47:15;97428.69;;;3.76;40.22
40838;BME280;29632;49.168;9.848;2023-02-28T02:49:48;97437.16;;;3.78;40.31
40838;BME280;29632;49.168;9.848;2023-02-28T02:52:15;97439.81;;;3.76;40.15
40838;BME280;29632;49.168;9.848;2023-02-28T02:54:45;97441.56;;;3.76;40.23
40838;BME280;29632;49.168;9.848;2023-02-28T02:57:22;97437.41;;;3.73;40.35
40838;BME280;29632;49.168;9.848;2023-02-28T02:59:50;97428.94;;;3.71;40.43
40838;BME280;29632;49.168;9.848;2023-02-28T03:02:17;97435.00;;;3.70;40.65
40838;BME280;29632;49.168;9.848;2023-02-28T03:04:50;97439.41;;;3.68;40.75
40838;BME280;29632;49.168;9.848;2023-02-28T03:07:17;97435.19;;;3.67;40.81
40838;BME280;29632;49.168;9.848;2023-02-28T03:09:51;97438.50;;;3.69;40.85
40838;BME280;29632;49.168;9.848;2023-02-28T03:12:17;97432.41;;;3.70;40.56
40838;BME280;29632;49.168;9.848;2023-02-28T03:15:12;97428.09;;;3.71;40.71
40838;BME280;29632;49.168;9.848;2023-02-28T03:17:50;97428.94;;;3.71;40.54
40838;BME280;29632;49.168;9.848;2023-02-28T03:20:55;97435.84;;;3.71;40.88
40838;BME280;29632;49.168;9.848;2023-02-28T03:23:27;97426.44;;;3.70;40.30
40838;BME280;29632;49.168;9.848;2023-02-28T03:26:02;97424.78;;;3.69;40.63
40838;BME280;29632;49.168;9.848;2023-02-28T03:29:22;97424.03;;;3.67;40.52
40838;BME280;29632;49.168;9.848;2023-02-28T03:31:41;97425.03;;;3.64;40.79
40838;BME280;29632;49.168;9.848;2023-02-28T03:34:31;97419.16;;;3.62;40.46
40838;BME280;29632;49.168;9.848;2023-02-28T03:37:02;97419.97;;;3.63;40.92
40838;BME280;29632;49.168;9.848;2023-02-28T03:39:41;97419.88;;;3.64;40.64
40838;BME280;29632;49.168;9.848;2023-02-28T03:42:17;97421.44;;;3.67;40.23
40838;BME280;29632;49.168;9.848;2023-02-28T03:47:27;97417.31;;;3.64;40.89
40838;BME280;29632;49.168;9.848;2023-02-28T03:49:57;97427.63;;;3.64;40.45
40838;BME280;29632;49.168;9.848;2023-02-28T03:52:28;97427.53;;;3.66;40.95
40838;BME280;29632;49.168;9.848;2023-02-28T03:55:00;97430.03;;;3.67;40.54
40838;BME280;29632;49.168;9.848;2023-02-28T03:58:02;97431.75;;;3.67;40.41
40838;BME280;29632;49.168;9.848;2023-02-28T04:00:30;97432.69;;;3.66;40.54
40838;BME280;29632;49.168;9.848;2023-02-28T04:02:56;97435.34;;;3.64;40.69
40838;BME280;29632;49.168;9.848;2023-02-28T04:05:22;97437.09;;;3.64;40.37
40838;BME280;29632;49.168;9.848;2023-02-28T04:07:48;97432.84;;;3.63;40.83
40838;BME280;29632;49.168;9.848;2023-02-28T04:10:16;97441.41;;;3.63;40.70
40838;BME280;29632;49.168;9.848;2023-02-28T04:12:42;97435.50;;;3.61;40.50
40838;BME280;29632;49.168;9.848;2023-02-28T04:15:08;97449.22;;;3.62;40.84
40838;BME280;29632;49.168;9.848;2023-02-28T04:17:33;97440.75;;;3.59;40.72
40838;BME280;29632;49.168;9.848;2023-02-28T04:19:59;97438.16;;;3.59;40.51
40838;BME280;29632;49.168;9.848;2023-02-28T04:22:25;97437.41;;;3.57;40.82
40838;BME280;29632;49.168;9.848;2023-02-28T04:24:53;97433.16;;;3.56;40.96
40838;BME280;29632;49.168;9.848;2023-02-28T04:27:20;97445.22;;;3.56;41.04
40838;BME280;29632;49.168;9.848;2023-02-28T04:29:46;97442.72;;;3.54;40.78
40838;BME280;29632;49.168;9.848;2023-02-28T04:32:12;97445.31;;;3.54;41.09
40838;BME280;29632;49.168;9.848;2023-02-28T04:34:38;97450.47;;;3.54;41.07
40838;BME280;29632;49.168;9.848;2023-02-28T04:37:04;97442.72;;;3.54;40.36
40838;BME280;29632;49.168;9.848;2023-02-28T04:39:35;97438.50;;;3.53;41.04
40838;BME280;29632;49.168;9.848;2023-02-28T04:42:00;97445.31;;;3.54;40.46
40838;BME280;29632;49.168;9.848;2023-02-28T04:44:26;97448.81;;;3.53;41.11
40838;BME280;29632;49.168;9.848;2023-02-28T04:46:52;97442.94;;;3.51;40.78
40838;BME280;29632;49.168;9.848;2023-02-28T04:49:17;97444.66;;;3.51;41.22
40838;BME280;29632;49.168;9.848;2023-02-28T04:51:43;97443.81;;;3.50;40.70
40838;BME280;29632;49.168;9.848;2023-02-28T04:54:09;97452.47;;;3.49;40.94
40838;BME280;29632;49.168;9.848;2023-02-28T04:56:35;97451.56;;;3.50;40.79
40838;BME280;29632;49.168;9.848;2023-02-28T04:59:00;97453.22;;;3.51;40.81
40838;BME280;29632;49.168;9.848;2023-02-28T05:01:28;97452.28;;;3.52;40.64
40838;BME280;29632;49.168;9.848;2023-02-28T05:03:56;97449.72;;;3.52;41.06
40838;BME280;29632;49.168;9.848;2023-02-28T05:06:24;97449.63;;;3.54;40.89
40838;BME280;29632;49.168;9.848;2023-02-28T05:08:50;97457.28;;;3.55;41.15
40838;BME280;29632;49.168;9.848;2023-02-28T05:11:30;97456.34;;;3.56;40.43
40838;BME280;29632;49.168;9.848;2023-02-28T05:14:04;97457.28;;;3.55;41.08
40838;BME280;29632;49.168;9.848;2023-02-28T05:16:30;97454.78;;;3.54;40.73
40838;BME280;29632;49.168;9.848;2023-02-28T05:18:56;97456.63;;;3.52;40.88
40838;BME280;29632;49.168;9.848;2023-02-28T05:21:38;97461.03;;;3.50;40.68
40838;BME280;29632;49.168;9.848;2023-02-28T05:24:11;97468.75;;;3.50;40.86
40838;BME280;29632;49.168;9.848;2023-02-28T05:26:39;97461.94;;;3.49;40.81
40838;BME280;29632;49.168;9.848;2023-02-28T05:29:05;97464.59;;;3.47;40.98
40838;BME280;29632;49.168;9.848;2023-02-28T05:31:31;97468.19;;;3.45;40.70
40838;BME280;29632;49.168;9.848;2023-02-28T05:33:57;97468.19;;;3.45;40.75
40838;BME280;29632;49.168;9.848;2023-02-28T05:36:23;97467.31;;;3.44;41.05
40838;BME280;29632;49.168;9.848;2023-02-28T05:38:49;97457.94;;;3.43;40.90
40838;BME280;29632;49.168;9.848;2023-02-28T05:41:16;97460.53;;;3.43;40.96
40838;BME280;29632;49.168;9.848;2023-02-28T05:43:42;97452.81;;;3.43;40.77
40838;BME280;29632;49.168;9.848;2023-02-28T05:46:09;97468.19;;;3.45;40.89
40838;BME280;29632;49.168;9.848;2023-02-28T05:48:37;97463.94;;;3.44;40.87
40838;BME280;29632;49.168;9.848;2023-02-28T05:51:03;97458.78;;;3.44;40.93
40838;BME280;29632;49.168;9.848;2023-02-28T05:53:29;97463.94;;;3.44;40.79
40838;BME280;29632;49.168;9.848;2023-02-28T05:55:55;97458.03;;;3.42;41.21
40838;BME280;29632;49.168;9.848;2023-02-28T05:58:21;97456.34;;;3.40;40.97
40838;BME280;29632;49.168;9.848;2023-02-28T06:00:47;97465.75;;;3.42;40.68
40838;BME280;29632;49.168;9.848;2023-02-28T06:03:13;97465.59;;;3.45;41.14
40838;BME280;29632;49.168;9.848;2023-02-28T06:05:39;97463.78;;;3.47;40.90
40838;BME280;29632;49.168;9.848;2023-02-28T06:08:04;97474.72;;;3.50;41.01
40838;BME280;29632;49.168;9.848;2023-02-28T06:10:33;97466.09;;;3.51;41.14
40838;BME280;29632;49.168;9.848;2023-02-28T06:13:05;97466.00;;;3.53;40.65
40838;BME280;29632;49.168;9.848;2023-02-28T06:15:31;97473.63;;;3.54;41.08
40838;BME280;29632;49.168;9.848;2023-02-28T06:17:57;97476.22;;;3.54;40.63
40838;BME280;29632;49.168;9.848;2023-02-28T06:20:23;97475.31;;;3.55;40.47
40838;BME280;29632;49.168;9.848;2023-02-28T06:22:49;97472.66;;;3.57;41.06
40838;BME280;29632;49.168;9.848;2023-02-28T06:25:19;97476.06;;;3.57;40.98
40838;BME280;29632;49.168;9.848;2023-02-28T06:27:45;97470.81;;;3.59;40.74
40838;BME280;29632;49.168;9.848;2023-02-28T06:30:11;97476.81;;;3.59;40.65
40838;BME280;29632;49.168;9.848;2023-02-28T06:32:37;97480.13;;;3.62;40.95
40838;BME280;29632;49.168;9.848;2023-02-28T06:35:03;97479.28;;;3.61;41.00
40838;BME280;29632;49.168;9.848;2023-02-28T06:37:30;97485.38;;;3.60;40.59
40838;BME280;29632;49.168;9.848;2023-02-28T06:39:56;97484.44;;;3.61;41.25
40838;BME280;29632;49.168;9.848;2023-02-28T06:42:24;97493.94;;;3.61;41.05
40838;BME280;29632;49.168;9.848;2023-02-28T06:44:55;97493.09;;;3.60;40.57
40838;BME280;29632;49.168;9.848;2023-02-28T06:47:21;97483.53;;;3.62;41.04
40838;BME280;29632;49.168;9.848;2023-02-28T06:49:46;97488.69;;;3.62;41.15
40838;BME280;29632;49.168;9.848;2023-02-28T06:52:12;97494.59;;;3.64;40.84
40838;BME280;29632;49.168;9.848;2023-02-28T06:54:38;97495.34;;;3.66;40.73
40838;BME280;29632;49.168;9.848;2023-02-28T06:57:04;97493.44;;;3.70;40.58
40838;BME280;29632;49.168;9.848;2023-02-28T06:59:30;97493.25;;;3.73;41.14
40838;BME280;29632;49.168;9.848;2023-02-28T07:01:56;97491.44;;;3.75;41.06
40838;BME280;29632;49.168;9.848;2023-02-28T07:04:22;97496.25;;;3.81;41.14
40838;BME280;29632;49.168;9.848;2023-02-28T07:06:47;97497.75;;;3.85;40.97
40838;BME280;29632;49.168;9.848;2023-02-28T07:09:13;97489.00;;;3.88;40.59
40838;BME280;29632;49.168;9.848;2023-02-28T07:11:39;97497.38;;;3.91;40.54
40838;BME280;29632;49.168;9.848;2023-02-28T07:14:06;97502.47;;;3.93;40.96
40838;BME280;29632;49.168;9.848;2023-02-28T07:16:32;97507.53;;;3.94;40.79
40838;BME280;29632;49.168;9.848;2023-02-28T07:18:58;97510.84;;;3.96;40.81
40838;BME280;29632;49.168;9.848;2023-02-28T07:21:24;97511.50;;;4.00;40.47
40838;BME280;29632;49.168;9.848;2023-02-28T07:23:50;97516.50;;;4.03;41.14
40838;BME280;29632;49.168;9.848;2023-02-28T07:26:17;97518.09;;;4.06;40.95
40838;BME280;29632;49.168;9.848;2023-02-28T07:28:45;97517.91;;;4.09;40.90
40838;BME280;29632;49.168;9.848;2023-02-28T07:31:12;97514.19;;;4.14;40.52
40838;BME280;29632;49.168;9.848;2023-02-28T07:33:39;97522.56;;;4.18;40.68
40838;BME280;29632;49.168;9.848;2023-02-28T07:36:11;97525.72;;;4.23;40.72
40838;BME280;29632;49.168;9.848;2023-02-28T07:38:44;97525.53;;;4.26;40.68
40838;BME280;29632;49.168;9.848;2023-02-28T07:41:11;97525.19;;;4.32;40.98
40838;BME280;29632;49.168;9.848;2023-02-28T07:43:37;97532.69;;;4.37;40.56
40838;BME280;29632;49.168;9.848;2023-02-28T07:46:04;97530.56;;;4.44;40.61
40838;BME280;29632;49.168;9.848;2023-02-28T07:48:30;97533.53;;;4.52;40.82
40838;BME280;29632;49.168;9.848;2023-02-28T07:50:56;97529.88;;;4.56;40.47
40838;BME280;29632;49.168;9.848;2023-02-28T07:53:22;97533.78;;;4.63;40.59
40838;BME280;29632;49.168;9.848;2023-02-28T07:55:47;97525.75;;;4.68;40.50
40838;BME280;29632;49.168;9.848;2023-02-28T07:58:13;97524.66;;;4.72;40.61
40838;BME280;29632;49.168;9.848;2023-02-28T08:00:39;97530.41;;;4.77;40.62
40838;BME280;29632;49.168;9.848;2023-02-28T08:03:04;97533.41;;;4.84;40.57
40838;BME280;29632;49.168;9.848;2023-02-28T08:05:30;97530.50;;;4.90;40.65
40838;BME280;29632;49.168;9.848;2023-02-28T08:07:56;97532.81;;;4.95;40.90
40838;BME280;29632;49.168;9.848;2023-02-28T08:10:22;97535.84;;;5.01;40.29
40838;BME280;29632;49.168;9.848;2023-02-28T08:12:49;97539.53;;;5.11;40.51
40838;BME280;29632;49.168;9.848;2023-02-28T08:15:15;97539.75;;;5.23;40.60
40838;BME280;29632;49.168;9.848;2023-02-28T08:17:41;97538.38;;;5.32;40.47
40838;BME280;29632;49.168;9.848;2023-02-28T08:20:07;97543.69;;;5.43;40.50
40838;BME280;29632;49.168;9.848;2023-02-28T08:22:34;97531.88;;;5.53;40.58
40838;BME280;29632;49.168;9.848;2023-02-28T08:25:00;97538.16;;;5.63;40.24
40838;BME280;29632;49.168;9.848;2023-02-28T08:27:25;97537.56;;;5.73;40.34
40838;BME280;29632;49.168;9.848;2023-02-28T08:29:51;97539.59;;;5.82;40.18
40838;BME280;29632;49.168;9.848;2023-02-28T08:32:16;97543.25;;;5.92;39.89
40838;BME280;29632;49.168;9.848;2023-02-28T08:34:42;97541.78;;;6.02;40.28
40838;BME280;29632;49.168;9.848;2023-02-28T08:37:08;97542.84;;;6.13;40.12
40838;BME280;29632;49.168;9.848;2023-02-28T08:39:34;97541.34;;;6.23;40.44
40838;BME280;29632;49.168;9.848;2023-02-28T08:42:02;97529.47;;;6.33;39.92
40838;BME280;29632;49.168;9.848;2023-02-28T08:44:28;97528.97;;;6.41;39.66
40838;BME280;29632;49.168;9.848;2023-02-28T08:46:53;97529.41;;;6.48;40.39
40838;BME280;29632;49.168;9.848;2023-02-28T08:49:19;97528.59;;;6.60;40.14
40838;BME280;29632;49.168;9.848;2023-02-28T08:51:45;97529.91;;;6.80;40.26
40838;BME280;29632;49.168;9.848;2023-02-28T08:54:10;97526.59;;;7.16;39.62
40838;BME280;29632;49.168;9.848;2023-02-28T08:56:41;97527.88;;;7.61;38.96
40838;BME280;29632;49.168;9.848;2023-02-28T08:59:08;97525.06;;;8.01;38.71
40838;BME280;29632;49.168;9.848;2023-02-28T09:01:34;97520.72;;;8.25;38.96
40838;BME280;29632;49.168;9.848;2023-02-28T09:04:01;97518.44;;;8.45;38.53
40838;BME280;29632;49.168;9.848;2023-02-28T09:06:27;97520.78;;;8.72;37.43
40838;BME280;29632;49.168;9.848;2023-02-28T09:08:56;97518.84;;;9.10;37.70
40838;BME280;29632;49.168;9.848;2023-02-28T09:11:24;97520.63;;;9.43;37.48
40838;BME280;29632;49.168;9.848;2023-02-28T09:13:49;97521.19;;;9.69;37.18
40838;BME280;29632;49.168;9.848;2023-02-28T09:16:15;97527.34;;;9.91;36.72
40838;BME280;29632;49.168;9.848;2023-02-28T09:18:42;97523.81;;;10.13;36.68
40838;BME280;29632;49.168;9.848;2023-02-28T09:21:10;97528.22;;;10.45;36.46
40838;BME280;29632;49.168;9.848;2023-02-28T09:23:37;97517.28;;;10.83;36.46
40838;BME280;29632;49.168;9.848;2023-02-28T09:26:06;97515.50;;;11.36;36.05
40838;BME280;29632;49.168;9.848;2023-02-28T09:28:32;97519.41;;;11.92;35.67
40838;BME280;29632;49.168;9.848;2023-02-28T09:30:58;97517.13;;;12.27;35.30
40838;BME280;29632;49.168;9.848;2023-02-28T09:33:24;97516.44;;;12.74;34.87
40838;BME280;29632;49.168;9.848;2023-02-28T09:35:51;97515.28;;;13.06;34.89
40838;BME280;29632;49.168;9.848;2023-02-28T09:38:22;97533.31;;;13.56;34.65
40838;BME280;29632;49.168;9.848;2023-02-28T09:40:53;97516.97;;;14.18;33.65
40838;BME280;29632;49.168;9.848;2023-02-28T09:43:22;97523.91;;;14.73;32.98
40838;BME280;29632;49.168;9.848;2023-02-28T09:46:08;97507.09;;;15.36;32.68
40838;BME280;29632;49.168;9.848;2023-02-28T09:48:41;97519.56;;;16.28;31.70
40838;BME280;29632;49.168;9.848;2023-02-28T09:53:56;97515.47;;;17.24;31.00
40838;BME280;29632;49.168;9.848;2023-02-28T09:56:32;97510.94;;;16.85;31.39
40838;BME280;29632;49.168;9.848;2023-02-28T10:01:29;97522.88;;;15.79;32.91
40838;BME280;29632;49.168;9.848;2023-02-28T10:04:00;97521.41;;;15.16;33.67
40838;BME280;29632;49.168;9.848;2023-02-28T10:06:31;97526.75;;;14.62;34.54
40838;BME280;29632;49.168;9.848;2023-02-28T10:09:01;97530.00;;;14.10;35.25
40838;BME280;29632;49.168;9.848;2023-02-28T10:11:28;97528.03;;;13.66;35.98
40838;BME280;29632;49.168;9.848;2023-02-28T10:14:04;97536.69;;;13.29;36.18
40838;BME280;29632;49.168;9.848;2023-02-28T10:16:43;97526.88;;;12.94;36.91
40838;BME280;29632;49.168;9.848;2023-02-28T10:22:17;97537.63;;;12.42;37.30
40838;BME280;29632;49.168;9.848;2023-02-28T10:24:45;97535.81;;;12.23;37.76
40838;BME280;29632;49.168;9.848;2023-02-28T10:27:22;97540.31;;;12.01;37.64
40838;BME280;29632;49.168;9.848;2023-02-28T10:29:56;97538.19;;;11.85;38.10
40838;BME280;29632;49.168;9.848;2023-02-28T10:32:25;97540.91;;;11.74;38.01
40838;BME280;29632;49.168;9.848;2023-02-28T10:35:01;97545.53;;;11.61;38.02
40838;BME280;29632;49.168;9.848;2023-02-28T10:37:31;97542.31;;;11.47;38.38
40838;BME280;29632;49.168;9.848;2023-02-28T10:39:57;97539.53;;;11.39;38.22
40838;BME280;29632;49.168;9.848;2023-02-28T10:42:24;97541.13;;;11.30;38.25
40838;BME280;29632;49.168;9.848;2023-02-28T10:45:15;97545.88;;;11.15;38.48
40838;BME280;29632;49.168;9.848;2023-02-28T10:47:59;97543.75;;;11.09;38.63
40838;BME280;29632;49.168;9.848;2023-02-28T10:50:44;97544.63;;;11.10;38.39
40838;BME280;29632;49.168;9.848;2023-02-28T10:56:00;97544.88;;;11.07;38.36
40838;BME280;29632;49.168;9.848;2023-02-28T11:01:18;97540.72;;;11.04;38.33
40838;BME280;29632;49.168;9.848;2023-02-28T11:03:45;97546.66;;;11.06;38.20
40838;BME280;29632;49.168;9.848;2023-02-28T11:06:22;97541.31;;;11.08;38.33
40838;BME280;29632;49.168;9.848;2023-02-28T11:08:49;97542.00;;;11.10;38.35
40838;BME280;29632;49.168;9.848;2023-02-28T11:11:16;97536.34;;;11.05;38.15
40838;BME280;29632;49.168;9.848;2023-02-28T11:13:42;97541.16;;;11.09;38.36
40838;BME280;29632;49.168;9.848;2023-02-28T11:16:10;97539.28;;;11.11;38.27
40838;BME280;29632;49.168;9.848;2023-02-28T11:21:03;97534.09;;;11.21;38.14
40838;BME280;29632;49.168;9.848;2023-02-28T11:23:30;97530.13;;;11.27;37.89
40838;BME280;29632;49.168;9.848;2023-02-28T11:25:59;97541.53;;;11.26;38.31
40838;BME280;29632;49.168;9.848;2023-02-28T11:28:34;97526.47;;;11.29;37.86
40838;BME280;29632;49.168;9.848;2023-02-28T11:31:06;97526.22;;;11.32;38.03
40838;BME280;29632;49.168;9.848;2023-02-28T11:33:53;97525.09;;;11.35;38.00
40838;BME280;29632;49.168;9.848;2023-02-28T11:36:21;97528.28;;;11.39;37.90
40838;BME280;29632;49.168;9.848;2023-02-28T11:38:50;97522.69;;;11.43;37.88
40838;BME280;29632;49.168;9.848;2023-02-28T11:49:38;97518.31;;;11.53;38.07
40838;BME280;29632;49.168;9.848;2023-02-28T11:57:32;97518.03;;;11.57;38.28
40838;BME280;29632;49.168;9.848;2023-02-28T12:02:28;97520.41;;;11.60;37.93
40838;BME280;29632;49.168;9.848;2023-02-28T12:12:52;97524.16;;;11.77;38.16
40838;BME280;29632;49.168;9.848;2023-02-28T12:21:20;97528.09;;;11.92;37.79
40838;BME280;29632;49.168;9.848;2023-02-28T12:26:42;97522.78;;;11.82;37.96
40838;BME280;29632;49.168;9.848;2023-02-28T12:29:12;97521.69;;;11.75;38.04
40838;BME280;29632;49.168;9.848;2023-02-28T12:31:42;97521.00;;;11.73;37.93
40838;BME280;29632;49.168;9.848;2023-02-28T12:34:13;97522.06;;;11.70;38.04
40838;BME280;29632;49.168;9.848;2023-02-28T12:36:41;97514.81;;;11.74;38.22
40838;BME280;29632;49.168;9.848;2023-02-28T12:39:26;97508.94;;;11.82;38.07
40838;BME280;29632;49.168;9.848;2023-02-28T12:47:01;97497.06;;;12.18;37.69
40838;BME280;29632;49.168;9.848;2023-02-28T12:49:39;97507.63;;;12.26;37.50
40838;BME280;29632;49.168;9.848;2023-02-28T12:52:06;97506.56;;;12.29;37.48
40838;BME280;29632;49.168;9.848;2023-02-28T12:58:35;97499.13;;;12.24;38.13
40838;BME280;29632;49.168;9.848;2023-02-28T13:00:32;97501.59;;;12.26;37.95
40838;BME280;29632;49.168;9.848;2023-02-28T13:03:21;97502.69;;;12.33;38.03
40838;BME280;29632;49.168;9.848;2023-02-28T13:09:18;97491.16;;;12.55;37.92
40838;BME280;29632;49.168;9.848;2023-02-28T13:11:46;97481.50;;;12.65;38.09
40838;BME280;29632;49.168;9.848;2023-02-28T13:14:38;97490.03;;;12.77;38.08
40838;BME280;29632;49.168;9.848;2023-02-28T13:19:39;97488.59;;;12.93;38.14
40838;BME280;29632;49.168;9.848;2023-02-28T13:22:20;97493.22;;;13.09;38.06
40838;BME280;29632;49.168;9.848;2023-02-28T13:24:56;97491.81;;;13.24;38.24
40838;BME280;29632;49.168;9.848;2023-02-28T13:27:36;97491.09;;;13.41;38.01
40838;BME280;29632;49.168;9.848;2023-02-28T13:33:29;97489.47;;;13.68;38.43
40838;BME280;29632;49.168;9.848;2023-02-28T13:38:49;97483.97;;;14.25;37.73
40838;BME280;29632;49.168;9.848;2023-02-28T13:41:41;97476.16;;;14.69;37.40
40838;BME280;29632;49.168;9.848;2023-02-28T13:44:16;97487.59;;;15.13;37.26
40838;BME280;29632;49.168;9.848;2023-02-28T13:54:40;97476.81;;;16.09;36.66
40838;BME280;29632;49.168;9.848;2023-02-28T13:57:23;97474.72;;;16.21;36.70
40838;BME280;29632;49.168;9.848;2023-02-28T14:07:47;97476.59;;;17.34;35.56
40838;BME280;29632;49.168;9.848;2023-02-28T14:10:27;97481.19;;;17.40;35.78
40838;BME280;29632;49.168;9.848;2023-02-28T14:17:59;97479.03;;;17.44;35.78
40838;BME280;29632;49.168;9.848;2023-02-28T14:20:29;97468.00;;;17.40;35.91
40838;BME280;29632;49.168;9.848;2023-02-28T14:26:03;97469.50;;;17.43;36.09
40838;BME280;29632;49.168;9.848;2023-02-28T14:31:18;97479.00;;;17.52;35.92
40838;BME280;29632;49.168;9.848;2023-02-28T14:36:37;97469.53;;;17.26;36.29
40838;BME280;29632;49.168;9.848;2023-02-28T14:39:14;97474.69;;;17.11;36.24
40838;BME280;29632;49.168;9.848;2023-02-28T14:41:43;97473.41;;;16.99;36.17
40838;BME280;29632;49.168;9.848;2023-02-28T14:44:22;97468.47;;;16.88;36.23
40838;BME280;29632;49.168;9.848;2023-02-28T14:47:13;97471.59;;;16.75;36.27
40838;BME280;29632;49.168;9.848;2023-02-28T14:49:36;97463.56;;;16.60;36.50
40838;BME280;29632;49.168;9.848;2023-02-28T14:52:15;97468.00;;;16.51;36.46
40838;BME280;29632;49.168;9.848;2023-02-28T14:54:42;97475.72;;;16.45;36.51
40838;BME280;29632;49.168;9.848;2023-02-28T14:57:25;97480.81;;;16.46;36.30
40838;BME280;29632;49.168;9.848;2023-02-28T15:02:38;97479.50;;;16.42;36.11
40838;BME280;29632;49.168;9.848;2023-02-28T15:05:31;97489.84;;;16.35;36.01
40838;BME280;29632;49.168;9.848;2023-02-28T15:08:26;97479.97;;;16.21;36.08
40838;BME280;29632;49.168;9.848;2023-02-28T15:13:39;97491.75;;;15.92;36.17
40838;BME280;29632;49.168;9.848;2023-02-28T15:16:11;97489.91;;;15.76;36.38
40838;BME280;29632;49.168;9.848;2023-02-28T15:21:15;97472.53;;;15.49;36.14
40838;BME280;29632;49.168;9.848;2023-02-28T15:23:43;97480.19;;;15.34;36.38
40838;BME280;29632;49.168;9.848;2023-02-28T15:26:15;97483.72;;;15.17;36.39